Time;durP1;ratioP1;P1;durP2;ratioP2;P2;SDS_P1;SDS_P2;PMS_P1;PMS_P2;Temp;Humidity;BMP_temperature;BMP_pressure;BME280_temperature;BME280_humidity;BME280_pressure;Samples;Min_cycle;Max_cycle;Signal;HPM_P1;HPM_P2
2021/05/15 00:00:55;;;;;;;3.10;2.47;;;14.90;86.40;;;;;;5033211;28;20618;-53
2021/05/15 00:03:22;;;;;;;2.37;1.73;;;14.90;86.40;;;;;;5033135;28;20634;-53
2021/05/15 00:05:49;;;;;;;1.63;1.53;;;14.80;86.10;;;;;;5033050;28;20712;-52
2021/05/15 00:08:16;;;;;;;3.53;1.87;;;14.80;86.30;;;;;;5032805;28;21159;-53
2021/05/15 00:10:43;;;;;;;2.83;1.80;;;14.80;86.50;;;;;;5032760;28;20704;-52
2021/05/15 00:13:11;;;;;;;2.13;1.70;;;14.80;86.50;;;;;;5013373;28;20615;-53
2021/05/15 00:15:38;;;;;;;5.67;1.83;;;14.70;86.60;;;;;;5013360;28;20730;-52
2021/05/15 00:18:05;;;;;;;2.03;1.83;;;14.70;86.60;;;;;;5013296;28;21228;-53
2021/05/15 00:20:32;;;;;;;2.00;1.77;;;14.70;87.00;;;;;;5013290;28;20627;-54
2021/05/15 00:22:59;;;;;;;2.37;1.40;;;14.60;86.90;;;;;;5013395;28;20635;-53
2021/05/15 00:25:25;;;;;;;1.43;1.33;;;14.50;87.10;;;;;;5015543;28;21222;-54
2021/05/15 00:27:53;;;;;;;2.00;1.80;;;14.50;87.30;;;;;;5032876;28;20689;-53
2021/05/15 00:30:20;;;;;;;3.63;1.97;;;14.40;87.60;;;;;;5033118;28;20689;-54
2021/05/15 00:32:47;;;;;;;1.87;1.50;;;14.40;87.70;;;;;;5027847;28;20683;-53
2021/05/15 00:35:14;;;;;;;1.50;1.40;;;14.30;87.80;;;;;;5017931;28;21219;-53
2021/05/15 00:37:40;;;;;;;1.30;1.10;;;14.30;87.90;;;;;;5032250;28;20663;-54
2021/05/15 00:40:08;;;;;;;1.33;1.20;;;14.20;87.90;;;;;;5021826;28;20635;-53
2021/05/15 00:42:35;;;;;;;2.17;1.00;;;14.20;88.00;;;;;;5013126;28;21188;-54
2021/05/15 00:45:05;;;;;;;1.30;1.10;;;14.10;88.30;;;;;;5011713;28;20647;-54
2021/05/15 00:47:32;;;;;;;1.40;1.30;;;14.10;88.50;;;;;;5012680;28;21173;-53
2021/05/15 00:49:58;;;;;;;1.97;1.00;;;14.00;88.80;;;;;;5013099;28;20631;-54
2021/05/15 00:52:27;;;;;;;3.93;1.20;;;14.00;89.00;;;;;;5012386;28;20704;-52
2021/05/15 00:54:54;;;;;;;1.30;1.20;;;14.00;88.80;;;;;;5031313;28;20655;-53
2021/05/15 00:57:21;;;;;;;1.73;1.10;;;14.00;88.90;;;;;;5032798;28;20623;-53
2021/05/15 00:59:48;;;;;;;1.13;0.80;;;14.00;89.10;;;;;;5033097;28;21199;-53
2021/05/15 01:02:15;;;;;;;1.80;1.10;;;14.00;89.00;;;;;;5032659;28;20619;-53
2021/05/15 01:04:42;;;;;;;3.47;1.30;;;14.10;88.90;;;;;;5032855;28;20663;-53
2021/05/15 01:07:10;;;;;;;2.87;1.40;;;14.00;88.80;;;;;;5028148;28;20635;-51
2021/05/15 01:09:36;;;;;;;1.10;1.00;;;14.10;89.10;;;;;;5013255;28;20624;-53
2021/05/15 01:12:04;;;;;;;1.50;1.17;;;14.00;89.00;;;;;;5032523;28;21190;-54
2021/05/15 01:14:32;;;;;;;1.70;1.10;;;14.00;88.90;;;;;;5031991;28;20677;-54
2021/05/15 01:16:59;;;;;;;1.20;1.00;;;14.00;89.00;;;;;;5031937;28;21183;-53
2021/05/15 01:19:27;;;;;;;1.77;1.40;;;14.10;89.20;;;;;;5031576;28;20737;-54
2021/05/15 01:21:54;;;;;;;1.30;1.20;;;14.10;89.10;;;;;;5021340;28;20658;-53
2021/05/15 01:24:21;;;;;;;1.90;1.73;;;14.10;88.90;;;;;;5012477;28;20665;-53
2021/05/15 01:26:48;;;;;;;4.33;1.80;;;14.10;88.70;;;;;;5012520;28;20702;-53
2021/05/15 01:29:14;;;;;;;1.27;1.17;;;14.10;88.50;;;;;;5012109;28;20623;-53
2021/05/15 01:31:41;;;;;;;2.13;1.90;;;14.10;88.80;;;;;;5012002;28;20666;-54
2021/05/15 01:34:08;;;;;;;1.77;1.40;;;14.10;88.80;;;;;;5012144;28;20701;-52
2021/05/15 01:36:39;;;;;;;5.67;1.77;;;14.10;88.90;;;;;;5076090;23;21280;-51
2021/05/15 01:39:08;;;;;;;1.97;1.30;;;14.10;89.00;;;;;;5069876;28;20678;-51
2021/05/15 01:41:34;;;;;;;1.33;1.10;;;14.00;88.80;;;;;;5069840;28;20621;-51
2021/05/15 01:44:01;;;;;;;2.20;1.23;;;14.00;89.00;;;;;;5069524;28;21262;-51
2021/05/15 01:46:28;;;;;;;1.70;1.60;;;14.00;89.00;;;;;;5052344;28;20658;-51
2021/05/15 01:48:55;;;;;;;2.57;1.90;;;14.00;89.20;;;;;;5049600;28;20618;-51
2021/05/15 01:51:21;;;;;;;1.20;1.10;;;14.00;89.30;;;;;;5049536;28;21144;-51
2021/05/15 01:53:49;;;;;;;2.40;1.17;;;14.00;89.30;;;;;;5049379;28;21316;-52
2021/05/15 01:56:17;;;;;;;1.47;1.33;;;14.00;89.50;;;;;;5049713;28;20646;-51
2021/05/15 01:58:44;;;;;;;4.07;3.00;;;14.00;89.70;;;;;;5049732;28;20765;-52
2021/05/15 02:01:11;;;;;;;3.30;3.00;;;13.90;89.40;;;;;;5049761;28;20726;-51
2021/05/15 02:03:39;;;;;;;5.83;2.00;;;13.90;90.00;;;;;;5049123;28;20667;-51
2021/05/15 02:06:05;;;;;;;3.03;1.70;;;13.80;90.00;;;;;;5049090;28;20650;-51
2021/05/15 02:08:32;;;;;;;2.53;1.80;;;13.80;90.00;;;;;;5049126;28;20626;-51
2021/05/15 02:10:59;;;;;;;2.03;1.73;;;13.80;90.10;;;;;;5049325;28;20636;-51
2021/05/15 02:13:27;;;;;;;2.17;1.47;;;13.80;90.20;;;;;;5048815;28;20683;-51
2021/05/15 02:15:54;;;;;;;4.70;2.40;;;13.80;90.20;;;;;;5047864;28;21059;-52
2021/05/15 02:18:21;;;;;;;2.13;1.50;;;13.80;90.20;;;;;;5048535;28;20662;-51
2021/05/15 02:20:48;;;;;;;2.77;1.70;;;13.80;90.30;;;;;;5049272;28;21130;-51
2021/05/15 02:23:15;;;;;;;1.90;1.80;;;13.80;90.30;;;;;;5031593;28;20627;-51
2021/05/15 02:25:42;;;;;;;1.90;1.80;;;13.80;90.20;;;;;;5029046;28;20713;-51
2021/05/15 02:28:08;;;;;;;1.67;1.57;;;13.80;90.10;;;;;;5035737;28;20627;-51
2021/05/15 02:30:36;;;;;;;3.20;1.63;;;13.80;90.20;;;;;;5049235;28;21279;-51
2021/05/15 02:33:03;;;;;;;1.50;1.40;;;13.80;90.20;;;;;;5048867;28;20637;-51
2021/05/15 02:35:30;;;;;;;2.23;2.10;;;13.80;90.20;;;;;;5048481;28;20672;-51
2021/05/15 02:37:57;;;;;;;2.03;1.93;;;13.80;90.20;;;;;;5049124;28;20764;-51
2021/05/15 02:40:23;;;;;;;3.03;1.97;;;13.80;90.30;;;;;;5048888;28;20649;-51
2021/05/15 02:42:50;;;;;;;2.20;2.00;;;13.80;90.30;;;;;;5049125;28;20633;-51
2021/05/15 02:45:18;;;;;;;2.07;1.87;;;13.70;90.50;;;;;;5048596;28;20723;-51
2021/05/15 02:47:45;;;;;;;2.90;1.90;;;13.70;90.70;;;;;;5048642;28;20948;-51
2021/05/15 02:50:13;;;;;;;3.23;2.33;;;13.60;90.80;;;;;;5048615;28;20756;-51
2021/05/15 02:52:40;;;;;;;3.43;2.20;;;13.70;90.90;;;;;;5048957;28;21210;-51
2021/05/15 02:55:08;;;;;;;2.33;2.13;;;13.70;90.80;;;;;;5049017;28;20707;-51
2021/05/15 02:57:36;;;;;;;2.90;2.60;;;13.60;90.80;;;;;;5048591;28;20697;-51
2021/05/15 03:00:04;;;;;;;2.43;1.73;;;13.60;91.00;;;;;;5048890;28;20772;-51
2021/05/15 03:02:31;;;;;;;2.77;2.20;;;13.60;91.20;;;;;;5048682;28;21026;-51
2021/05/15 03:04:58;;;;;;;3.40;1.87;;;13.60;91.30;;;;;;5048755;28;21015;-51
2021/05/15 03:07:25;;;;;;;2.60;2.40;;;13.60;91.50;;;;;;5048579;28;20991;-51
2021/05/15 03:09:52;;;;;;;4.00;2.33;;;13.60;91.50;;;;;;5048010;28;21147;-52
2021/05/15 03:12:18;;;;;;;4.90;2.80;;;13.50;91.60;;;;;;5049073;28;20620;-51
2021/05/15 03:14:45;;;;;;;3.70;3.17;;;13.60;91.70;;;;;;5048406;28;20656;-51
2021/05/15 03:17:12;;;;;;;3.60;3.30;;;13.60;91.60;;;;;;5048519;28;20641;-51
2021/05/15 03:19:39;;;;;;;3.43;2.03;;;13.60;91.50;;;;;;5048688;28;20693;-51
2021/05/15 03:22:06;;;;;;;2.60;2.40;;;13.70;91.40;;;;;;5048832;28;20656;-51
2021/05/15 03:24:33;;;;;;;3.47;2.60;;;13.60;91.40;;;;;;5063448;28;20630;-51
2021/05/15 03:27:00;;;;;;;2.67;2.47;;;13.60;91.50;;;;;;5051362;28;20757;-51
2021/05/15 03:29:27;;;;;;;3.00;2.73;;;13.60;91.60;;;;;;5052395;28;20969;-51
2021/05/15 03:31:53;;;;;;;3.50;3.20;;;13.60;91.50;;;;;;5052340;28;20632;-50
2021/05/15 03:34:20;;;;;;;3.87;3.57;;;13.60;91.70;;;;;;5052449;28;20629;-51
2021/05/15 03:36:47;;;;;;;4.13;3.07;;;13.50;91.70;;;;;;5052450;28;20691;-51
2021/05/15 03:39:18;;;;;;;5.93;3.47;;;13.50;91.90;;;;;;5051588;28;20650;-50
2021/05/15 03:41:45;;;;;;;3.50;3.23;;;13.50;91.90;;;;;;5051740;28;20629;-51
2021/05/15 03:44:12;;;;;;;5.23;3.20;;;13.50;92.00;;;;;;5066987;28;20634;-51
2021/05/15 03:46:39;;;;;;;3.57;3.30;;;13.50;91.80;;;;;;5051789;28;20702;-51
2021/05/15 03:49:05;;;;;;;5.53;3.27;;;13.50;91.80;;;;;;5051518;28;20647;-51
2021/05/15 03:51:32;;;;;;;4.40;3.30;;;13.40;91.70;;;;;;5051217;28;20640;-51
2021/05/15 03:53:59;;;;;;;3.00;2.80;;;13.50;92.10;;;;;;5052215;28;20628;-51
2021/05/15 03:56:27;;;;;;;3.63;2.77;;;13.40;91.70;;;;;;5051483;28;21164;-50
2021/05/15 03:58:53;;;;;;;4.70;3.40;;;13.40;91.70;;;;;;5051249;28;20753;-51
2021/05/15 04:01:20;;;;;;;3.23;2.77;;;13.40;91.60;;;;;;5051602;28;20625;-51
2021/05/15 04:03:47;;;;;;;3.30;3.00;;;13.40;91.70;;;;;;5051609;28;20733;-51
2021/05/15 04:06:14;;;;;;;3.13;2.80;;;13.40;91.70;;;;;;5051124;28;21023;-51
2021/05/15 04:08:40;;;;;;;3.97;2.20;;;13.40;91.70;;;;;;5050863;28;20655;-50
2021/05/15 04:11:07;;;;;;;3.80;2.80;;;13.40;91.60;;;;;;5051458;28;20625;-50
2021/05/15 04:13:41;;;;;;;3.50;3.13;;;13.30;91.60;;;;;;5051103;28;20621;-51
2021/05/15 04:16:13;;;;;;;2.93;2.67;;;13.30;91.60;;;;;;5050909;28;20680;-50
2021/05/15 04:18:40;;;;;;;2.93;2.67;;;13.30;91.60;;;;;;5050797;28;20726;-51
2021/05/15 04:21:06;;;;;;;5.70;3.63;;;13.30;91.60;;;;;;5034767;28;20627;-50
2021/05/15 04:23:33;;;;;;;2.77;2.57;;;13.30;91.50;;;;;;5031316;28;20628;-51
2021/05/15 04:26:00;;;;;;;4.40;2.70;;;13.30;91.50;;;;;;5031389;28;20698;-51
2021/05/15 04:28:27;;;;;;;4.13;2.30;;;13.30;91.40;;;;;;5031024;28;20627;-50
2021/05/15 04:30:54;;;;;;;3.13;2.93;;;13.20;91.60;;;;;;5031352;28;21026;-50
2021/05/15 04:33:23;;;;;;;2.87;2.63;;;13.20;91.80;;;;;;5036930;28;20962;-50
2021/05/15 04:35:51;;;;;;;3.40;2.30;;;13.20;91.90;;;;;;5050653;28;20723;-51
2021/05/15 04:38:17;;;;;;;2.93;2.63;;;13.30;92.00;;;;;;5049735;28;20636;-50
2021/05/15 04:40:44;;;;;;;3.50;2.50;;;13.20;91.90;;;;;;5050835;28;21303;-51
2021/05/15 04:43:13;;;;;;;3.47;3.20;;;13.30;91.90;;;;;;5050968;28;20664;-51
2021/05/15 04:45:40;;;;;;;4.40;2.43;;;13.20;91.80;;;;;;5050803;28;20711;-51
2021/05/15 04:48:08;;;;;;;3.77;2.73;;;13.30;91.80;;;;;;5050223;28;20953;-49
2021/05/15 04:50:35;;;;;;;2.73;2.47;;;13.20;91.70;;;;;;5050490;28;20622;-51
2021/05/15 04:53:02;;;;;;;2.70;2.50;;;13.20;91.70;;;;;;5050626;28;21190;-51
2021/05/15 04:55:28;;;;;;;2.33;2.13;;;13.20;91.60;;;;;;5050849;28;20641;-51
2021/05/15 04:57:57;;;;;;;3.13;2.70;;;13.20;91.80;;;;;;5050055;28;20656;-50
2021/05/15 05:00:24;;;;;;;4.20;2.67;;;13.30;91.60;;;;;;5050512;28;20731;-51
2021/05/15 05:02:51;;;;;;;2.40;2.07;;;13.30;91.40;;;;;;5049929;28;20633;-51
2021/05/15 05:05:19;;;;;;;2.73;2.53;;;13.30;91.50;;;;;;5050669;28;20750;-50
2021/05/15 05:07:46;;;;;;;2.67;2.47;;;13.30;91.30;;;;;;5050051;28;20626;-51
2021/05/15 05:10:12;;;;;;;5.47;2.57;;;13.40;91.30;;;;;;5048146;28;20622;-51
2021/05/15 05:12:39;;;;;;;2.60;2.40;;;13.40;91.30;;;;;;5030669;28;20685;-51
2021/05/15 05:15:06;;;;;;;2.53;2.33;;;13.40;91.40;;;;;;5035384;28;20723;-50
2021/05/15 05:17:33;;;;;;;2.70;2.50;;;13.50;91.40;;;;;;5049929;28;20660;-51
2021/05/15 05:20:00;;;;;;;3.07;2.30;;;13.50;91.50;;;;;;5049954;28;20654;-51
2021/05/15 05:22:27;;;;;;;4.30;2.30;;;13.50;91.40;;;;;;5050599;28;20675;-51
2021/05/15 05:24:54;;;;;;;3.43;2.30;;;13.60;91.10;;;;;;5050118;28;20714;-51
2021/05/15 05:27:22;;;;;;;2.27;1.80;;;13.60;91.00;;;;;;5049955;28;20618;-51
2021/05/15 05:29:49;;;;;;;2.93;2.73;;;13.60;91.00;;;;;;5050186;28;20622;-51
2021/05/15 05:32:16;;;;;;;3.67;2.67;;;13.60;91.00;;;;;;5049771;28;20625;-51
2021/05/15 05:34:42;;;;;;;2.73;2.13;;;13.60;91.00;;;;;;5049671;28;20662;-50
2021/05/15 05:37:09;;;;;;;3.63;2.63;;;13.60;91.10;;;;;;5050084;28;20659;-51
2021/05/15 05:39:37;;;;;;;3.20;2.20;;;13.60;91.00;;;;;;5049885;28;20666;-51
2021/05/15 05:42:04;;;;;;;1.80;1.70;;;13.60;91.00;;;;;;5050144;28;20703;-51
2021/05/15 05:44:31;;;;;;;4.53;2.30;;;13.60;91.00;;;;;;5049608;28;21139;-51
2021/05/15 05:46:58;;;;;;;3.23;2.33;;;13.70;91.00;;;;;;5050105;28;20679;-51
2021/05/15 05:49:24;;;;;;;3.20;3.00;;;13.70;90.80;;;;;;5049380;28;20638;-51
2021/05/15 05:51:51;;;;;;;3.23;2.60;;;13.80;90.60;;;;;;5049351;28;20680;-51
2021/05/15 05:54:18;;;;;;;3.90;2.37;;;13.80;90.30;;;;;;5049576;28;20707;-51
2021/05/15 05:56:45;;;;;;;2.50;2.30;;;13.80;90.20;;;;;;5049566;28;21044;-51
2021/05/15 05:59:12;;;;;;;2.73;2.00;;;13.80;90.20;;;;;;5049142;28;20650;-51
2021/05/15 06:01:39;;;;;;;2.87;2.67;;;13.80;90.30;;;;;;5049697;28;20638;-51
2021/05/15 06:04:06;;;;;;;1.90;1.80;;;13.80;90.00;;;;;;5049405;28;20652;-52
2021/05/15 06:06:33;;;;;;;3.50;2.77;;;13.80;90.00;;;;;;5049485;28;20715;-51
2021/05/15 06:09:00;;;;;;;4.43;2.33;;;13.80;89.90;;;;;;5049298;28;20610;-52
2021/05/15 06:11:27;;;;;;;5.47;2.60;;;13.90;90.00;;;;;;5049621;28;20659;-52
2021/05/15 06:13:54;;;;;;;2.90;2.70;;;13.90;89.00;;;;;;5048844;28;20749;-52
2021/05/15 06:16:21;;;;;;;3.50;2.60;;;13.90;89.00;;;;;;5049565;28;21190;-52
2021/05/15 06:18:48;;;;;;;3.40;1.90;;;13.90;89.10;;;;;;5048753;28;20625;-52
2021/05/15 06:21:15;;;;;;;7.67;3.07;;;14.00;89.10;;;;;;5049076;28;20626;-52
2021/05/15 06:23:41;;;;;;;3.53;3.20;;;14.10;88.50;;;;;;5049307;28;20670;-52
2021/05/15 06:26:09;;;;;;;4.70;3.03;;;14.10;85.40;;;;;;5049160;28;20700;-52
2021/05/15 06:28:36;;;;;;;2.90;2.70;;;14.20;85.30;;;;;;5049024;28;20715;-51
2021/05/15 06:31:04;;;;;;;6.00;3.67;;;14.20;84.60;;;;;;5048979;28;20659;-52
2021/05/15 06:33:30;;;;;;;4.23;3.83;;;14.20;84.40;;;;;;5048858;28;20645;-52
2021/05/15 06:35:57;;;;;;;4.43;2.70;;;14.20;85.10;;;;;;5063781;28;20662;-52
2021/05/15 06:38:24;;;;;;;4.10;3.47;;;14.40;84.90;;;;;;5049035;28;20699;-51
2021/05/15 06:40:51;;;;;;;2.77;2.43;;;14.40;82.60;;;;;;5048814;28;20719;-52
2021/05/15 06:43:18;;;;;;;3.97;2.73;;;14.50;81.60;;;;;;5048849;28;20788;-51
2021/05/15 06:45:44;;;;;;;2.53;2.30;;;14.60;80.70;;;;;;5049222;28;20658;-51
2021/05/15 06:48:12;;;;;;;4.30;3.73;;;14.60;80.70;;;;;;5049405;28;20653;-52
2021/05/15 06:50:39;;;;;;;8.50;3.73;;;14.50;80.30;;;;;;5049433;28;20618;-52
2021/05/15 06:53:06;;;;;;;2.73;2.53;;;14.50;80.90;;;;;;5049342;28;20737;-52
2021/05/15 06:55:32;;;;;;;2.90;2.70;;;14.50;82.20;;;;;;5049248;28;20756;-51
2021/05/15 06:58:03;;;;;;;2.83;2.53;;;14.50;82.10;;;;;;5049073;28;20622;-52
2021/05/15 07:00:30;;;;;;;3.30;3.00;;;14.60;81.80;;;;;;5049234;28;20641;-52
2021/05/15 07:02:57;;;;;;;3.10;2.80;;;14.60;81.80;;;;;;5052189;28;20696;-51
2021/05/15 07:05:24;;;;;;;3.63;3.07;;;14.70;82.20;;;;;;5041681;28;21032;-52
2021/05/15 07:07:51;;;;;;;3.20;2.67;;;14.80;81.80;;;;;;5052169;28;21123;-52
2021/05/15 07:10:18;;;;;;;4.00;2.80;;;14.70;81.10;;;;;;5052060;28;20637;-51
2021/05/15 07:12:44;;;;;;;6.37;3.60;;;14.60;81.70;;;;;;5051502;28;20641;-52
2021/05/15 07:15:12;;;;;;;3.20;2.90;;;14.60;81.70;;;;;;5052795;28;20688;-52
2021/05/15 07:17:39;;;;;;;4.40;3.90;;;14.60;82.10;;;;;;5052601;28;20630;-52
2021/05/15 07:20:06;;;;;;;3.70;3.30;;;14.70;81.40;;;;;;5052529;28;20649;-52
2021/05/15 07:22:34;;;;;;;3.80;3.40;;;14.70;81.40;;;;;;5053017;28;20675;-52
2021/05/15 07:25:01;;;;;;;4.43;3.10;;;14.80;81.10;;;;;;5052471;28;20657;-51
2021/05/15 07:27:29;;;;;;;4.90;3.20;;;14.80;80.60;;;;;;5052290;28;20694;-50
2021/05/15 07:29:56;;;;;;;2.43;2.23;;;14.80;79.10;;;;;;5052443;28;21190;-51
2021/05/15 07:32:23;;;;;;;7.13;3.47;;;15.00;77.30;;;;;;5052127;28;20657;-51
2021/05/15 07:34:49;;;;;;;2.77;2.57;;;15.00;76.70;;;;;;5052080;28;21044;-51
2021/05/15 07:37:16;;;;;;;2.60;2.40;;;15.10;75.60;;;;;;5052589;28;20676;-51
2021/05/15 07:39:44;;;;;;;4.10;2.70;;;15.20;75.40;;;;;;5052281;28;20700;-52
2021/05/15 07:42:11;;;;;;;3.63;3.33;;;15.30;74.20;;;;;;5053023;28;21011;-51
2021/05/15 07:44:37;;;;;;;3.57;3.27;;;15.40;73.70;;;;;;5052562;28;20634;-52
2021/05/15 07:47:04;;;;;;;3.33;2.90;;;15.40;73.10;;;;;;5051380;28;20634;-52
2021/05/15 07:49:31;;;;;;;4.90;4.40;;;15.40;73.60;;;;;;5052400;28;20692;-52
2021/05/15 07:51:58;;;;;;;3.73;2.47;;;15.40;73.50;;;;;;5051743;28;20630;-51
2021/05/15 07:54:24;;;;;;;4.40;3.53;;;15.30;73.90;;;;;;5051970;28;20618;-52
2021/05/15 07:56:54;;;;;;;5.27;3.40;;;15.30;73.60;;;;;;5051549;28;21201;-52
2021/05/15 07:59:21;;;;;;;4.63;4.10;;;15.20;73.40;;;;;;5031911;28;20807;-52
2021/05/15 08:01:47;;;;;;;4.40;3.50;;;15.30;74.00;;;;;;5032524;28;20638;-52
2021/05/15 08:04:14;;;;;;;3.10;2.90;;;15.30;74.40;;;;;;5032446;28;20637;-52
2021/05/15 08:06:41;;;;;;;4.37;3.57;;;15.50;73.40;;;;;;5049777;28;20658;-52
2021/05/15 08:09:08;;;;;;;5.90;3.63;;;15.70;72.20;;;;;;5052077;28;20683;-51
2021/05/15 08:11:35;;;;;;;3.33;3.03;;;15.80;71.50;;;;;;5051700;28;20691;-51
2021/05/15 08:14:04;;;;;;;3.53;2.67;;;15.60;71.00;;;;;;5051027;28;20707;-51
2021/05/15 08:16:33;;;;;;;5.73;3.43;;;15.50;71.40;;;;;;5052045;28;21017;-51
2021/05/15 08:19:00;;;;;;;4.13;3.80;;;15.50;72.10;;;;;;5051947;28;21194;-52
2021/05/15 08:21:26;;;;;;;2.90;2.70;;;15.40;72.80;;;;;;5051204;28;20716;-50
2021/05/15 08:23:53;;;;;;;3.23;2.73;;;15.40;73.40;;;;;;5051713;28;20683;-51
2021/05/15 08:26:20;;;;;;;3.57;3.10;;;15.50;73.30;;;;;;5051729;28;20637;-50
2021/05/15 08:28:49;;;;;;;3.60;3.30;;;15.50;76.10;;;;;;5050562;28;21270;-50
2021/05/15 08:31:17;;;;;;;4.17;3.63;;;15.40;76.50;;;;;;5051842;28;20625;-52
2021/05/15 08:33:44;;;;;;;3.40;2.80;;;15.40;76.80;;;;;;5051702;28;20642;-51
2021/05/15 08:36:10;;;;;;;2.80;2.70;;;15.40;77.30;;;;;;5051715;28;20665;-51
2021/05/15 08:38:37;;;;;;;3.57;3.10;;;15.40;77.70;;;;;;5051059;28;20671;-51
2021/05/15 08:41:04;;;;;;;3.27;3.07;;;15.40;77.60;;;;;;5052010;28;20645;-53
2021/05/15 08:43:33;;;;;;;3.73;3.30;;;15.50;78.00;;;;;;5051141;28;20986;-51
2021/05/15 08:46:01;;;;;;;3.20;2.90;;;15.60;77.80;;;;;;5051718;28;20718;-51
2021/05/15 08:48:30;;;;;;;4.03;3.63;;;15.70;77.20;;;;;;5051766;28;20626;-51
2021/05/15 08:50:58;;;;;;;3.57;3.27;;;15.70;75.20;;;;;;5052049;28;20630;-51
2021/05/15 08:53:25;;;;;;;4.63;4.03;;;15.80;75.40;;;;;;5051284;28;20645;-51
2021/05/15 08:55:52;;;;;;;3.13;2.43;;;15.90;75.30;;;;;;5050899;28;20684;-51
2021/05/15 08:58:20;;;;;;;3.90;2.70;;;16.00;74.90;;;;;;5051090;28;20977;-52
2021/05/15 09:00:48;;;;;;;3.40;3.10;;;16.10;73.20;;;;;;5050023;28;20658;-51
2021/05/15 09:03:15;;;;;;;3.70;3.30;;;16.10;72.60;;;;;;5051103;28;20622;-51
2021/05/15 09:05:46;;;;;;;2.90;2.70;;;16.20;72.60;;;;;;5050505;28;20739;-51
2021/05/15 09:08:12;;;;;;;2.67;2.47;;;16.30;72.70;;;;;;5050332;28;20683;-51
2021/05/15 09:10:41;;;;;;;4.13;2.50;;;16.50;72.90;;;;;;5046772;28;20696;-52
2021/05/15 09:13:09;;;;;;;2.53;2.20;;;16.60;72.30;;;;;;5030733;28;20745;-51
2021/05/15 09:15:40;;;;;;;2.50;2.30;;;16.60;71.60;;;;;;5030634;28;20655;-51
2021/05/15 09:18:07;;;;;;;2.63;2.30;;;16.60;72.50;;;;;;5040951;28;20630;-51
2021/05/15 09:20:34;;;;;;;1.60;1.50;;;16.50;72.30;;;;;;5050632;28;20673;-51
2021/05/15 09:23:11;;;;;;;1.80;1.70;;;16.40;72.20;;;;;;5050483;28;20759;-53
2021/05/15 09:25:38;;;;;;;2.20;1.60;;;16.30;72.50;;;;;;5050173;28;20666;-52
2021/05/15 09:28:05;;;;;;;2.13;1.80;;;16.10;71.20;;;;;;5050193;28;20676;-52
2021/05/15 09:30:32;;;;;;;1.60;1.50;;;16.10;71.90;;;;;;5050196;28;20634;-51
2021/05/15 09:32:59;;;;;;;2.27;2.07;;;16.20;72.40;;;;;;5050294;28;20629;-51
2021/05/15 09:35:25;;;;;;;1.47;1.37;;;16.10;72.90;;;;;;5049673;28;21036;-51
2021/05/15 09:37:52;;;;;;;2.03;1.83;;;16.00;73.40;;;;;;5050305;28;20695;-51
2021/05/15 09:40:22;;;;;;;1.70;1.60;;;15.90;73.00;;;;;;5050110;28;20658;-51
2021/05/15 09:42:49;;;;;;;1.40;1.30;;;16.00;74.30;;;;;;5050853;28;20630;-51
2021/05/15 09:45:18;;;;;;;2.67;1.60;;;15.90;74.60;;;;;;5050261;28;20642;-51
2021/05/15 09:47:54;;;;;;;3.13;1.80;;;15.90;75.10;;;;;;5050502;28;20633;-52
2021/05/15 09:50:23;;;;;;;2.60;2.03;;;15.80;77.80;;;;;;5050567;28;20626;-52
2021/05/15 09:52:49;;;;;;;3.23;2.77;;;15.70;79.90;;;;;;5039857;28;21056;-52
2021/05/15 09:55:17;;;;;;;4.20;2.60;;;15.60;81.10;;;;;;5050466;28;20870;-52
2021/05/15 09:57:55;;;;;;;3.37;3.07;;;15.50;85.00;;;;;;5048654;28;20637;-52
2021/05/15 10:00:22;;;;;;;4.07;3.63;;;15.30;88.40;;;;;;5037496;28;20731;-51
2021/05/15 10:02:54;;;;;;;5.30;3.47;;;15.10;91.30;;;;;;5049760;28;20700;-52
2021/05/15 10:05:21;;;;;;;2.17;1.93;;;14.50;94.90;;;;;;5050615;28;20682;-52
2021/05/15 10:07:48;;;;;;;2.13;2.03;;;13.90;95.40;;;;;;5046696;28;21217;-52
2021/05/15 10:10:15;;;;;;;1.80;1.70;;;13.60;96.00;;;;;;5049591;28;20618;-51
2021/05/15 10:12:42;;;;;;;2.93;1.30;;;13.40;96.90;;;;;;5049103;28;20695;-52
2021/05/15 10:15:11;;;;;;;1.43;1.33;;;13.20;97.00;;;;;;5044570;28;20654;-52
2021/05/15 10:17:37;;;;;;;1.37;1.27;;;13.00;96.80;;;;;;5049624;28;20678;-52
2021/05/15 10:20:06;;;;;;;2.53;1.90;;;12.90;97.60;;;;;;5049728;28;20711;-52
2021/05/15 10:22:36;;;;;;;2.33;2.13;;;12.90;98.10;;;;;;5049811;28;21162;-52
2021/05/15 10:25:04;;;;;;;2.90;2.60;;;13.00;98.30;;;;;;5048367;28;20658;-51
2021/05/15 10:27:34;;;;;;;4.73;2.20;;;13.00;98.60;;;;;;5048637;28;20626;-52
2021/05/15 10:30:12;;;;;;;2.33;2.07;;;13.20;99.00;;;;;;5048173;28;20626;-52
2021/05/15 10:32:52;;;;;;;2.60;1.80;;;13.40;99.10;;;;;;5040002;28;20630;-52
2021/05/15 10:35:27;;;;;;;3.47;2.20;;;13.60;98.10;;;;;;5048950;28;21212;-52
2021/05/15 10:38:01;;;;;;;3.37;2.67;;;13.70;97.70;;;;;;5049745;28;20691;-52
2021/05/15 10:40:30;;;;;;;3.30;2.20;;;14.00;97.60;;;;;;5048376;28;20962;-51
2021/05/15 10:43:00;;;;;;;2.17;1.30;;;14.10;97.40;;;;;;5048901;28;20691;-51
2021/05/15 10:45:34;;;;;;;2.20;1.30;;;14.20;97.40;;;;;;5033691;28;20709;-52
2021/05/15 10:48:11;;;;;;;2.10;1.37;;;14.10;95.90;;;;;;5034693;28;20699;-52
2021/05/15 10:50:47;;;;;;;1.97;1.87;;;14.00;95.50;;;;;;5046028;28;20679;-51
2021/05/15 10:53:18;;;;;;;3.63;1.80;;;13.80;95.70;;;;;;5049065;28;20675;-51
2021/05/15 10:55:45;;;;;;;2.70;1.70;;;13.80;96.30;;;;;;5047805;28;20699;-52
2021/05/15 10:58:12;;;;;;;3.90;2.00;;;13.80;95.80;;;;;;5044175;28;20654;-52
2021/05/15 11:00:40;;;;;;;1.67;1.57;;;13.70;95.50;;;;;;5048966;28;20654;-52
2021/05/15 11:03:07;;;;;;;2.13;1.43;;;13.70;95.70;;;;;;5049652;28;20732;-52
2021/05/15 11:05:41;;;;;;;3.53;1.40;;;13.60;95.90;;;;;;5047183;28;20744;-52
2021/05/15 11:08:20;;;;;;;2.20;1.40;;;13.60;95.90;;;;;;5045653;28;20702;-51
2021/05/15 11:10:47;;;;;;;2.90;1.47;;;13.60;96.30;;;;;;5047034;28;20630;-51
2021/05/15 11:13:14;;;;;;;5.93;1.90;;;13.60;95.80;;;;;;5049296;28;20722;-51
2021/05/15 11:15:41;;;;;;;2.63;1.80;;;13.70;95.70;;;;;;5049142;28;20642;-51
2021/05/15 11:18:08;;;;;;;2.00;1.80;;;13.80;95.90;;;;;;5048687;28;21192;-51
2021/05/15 11:20:41;;;;;;;2.20;1.53;;;13.80;95.80;;;;;;5048362;28;20651;-51
2021/05/15 11:23:11;;;;;;;2.93;1.40;;;13.90;95.40;;;;;;5048720;28;20634;-51
2021/05/15 11:25:39;;;;;;;1.30;1.20;;;13.90;95.20;;;;;;5048472;28;20711;-51
2021/05/15 11:28:07;;;;;;;2.30;2.07;;;13.90;95.10;;;;;;5048890;28;20684;-51
2021/05/15 11:30:36;;;;;;;1.17;0.97;;;13.90;94.70;;;;;;5047549;28;21179;-51
2021/05/15 11:33:05;;;;;;;1.13;1.03;;;14.00;94.30;;;;;;5049249;28;20622;-51
2021/05/15 11:35:32;;;;;;;1.60;0.87;;;14.20;93.70;;;;;;5048985;28;20739;-52
2021/05/15 11:38:01;;;;;;;0.80;0.80;;;14.50;93.70;;;;;;5048352;28;20661;-51
2021/05/15 11:40:28;;;;;;;1.60;0.90;;;14.90;94.00;;;;;;5044009;28;20655;-53
2021/05/15 11:42:56;;;;;;;1.20;1.10;;;15.20;93.20;;;;;;5029048;28;20638;-53
2021/05/15 11:45:24;;;;;;;1.23;1.13;;;15.30;92.30;;;;;;5030168;28;20662;-52
2021/05/15 11:47:52;;;;;;;3.00;1.20;;;15.30;90.10;;;;;;5035988;28;20675;-52
2021/05/15 11:50:19;;;;;;;3.33;1.97;;;15.30;90.90;;;;;;5052909;28;20668;-53
2021/05/15 11:52:46;;;;;;;1.47;1.03;;;15.30;90.60;;;;;;5052691;28;20687;-53
2021/05/15 11:55:13;;;;;;;0.97;0.90;;;15.40;90.50;;;;;;5052943;28;20646;-52
2021/05/15 11:57:41;;;;;;;1.87;0.70;;;15.50;90.70;;;;;;5051057;28;20692;-52
2021/05/15 12:00:09;;;;;;;1.30;1.10;;;15.70;89.50;;;;;;5051896;28;20634;-52
2021/05/15 12:02:40;;;;;;;1.10;1.00;;;15.80;88.40;;;;;;5046538;28;20670;-52
2021/05/15 12:05:13;;;;;;;2.17;1.20;;;15.90;87.40;;;;;;5042159;28;20751;-52
2021/05/15 12:07:45;;;;;;;1.63;1.30;;;16.10;86.80;;;;;;5032661;28;20631;-52
2021/05/15 12:10:15;;;;;;;2.40;1.13;;;16.20;84.90;;;;;;5032578;28;20696;-52
2021/05/15 12:12:42;;;;;;;1.17;0.90;;;16.50;85.50;;;;;;5032407;28;21160;-52
2021/05/15 12:15:10;;;;;;;1.50;1.20;;;16.70;82.70;;;;;;5032614;28;20651;-53
2021/05/15 12:17:37;;;;;;;1.10;1.00;;;16.70;82.00;;;;;;5046345;28;20618;-52
2021/05/15 12:20:05;;;;;;;2.73;1.40;;;16.70;80.40;;;;;;5049404;28;20760;-52
2021/05/15 12:22:32;;;;;;;1.80;1.10;;;16.60;81.10;;;;;;5051241;28;20633;-52
2021/05/15 12:25:07;;;;;;;1.40;1.30;;;16.50;82.30;;;;;;5051602;28;20653;-52
2021/05/15 12:27:34;;;;;;;1.90;1.80;;;16.40;82.30;;;;;;5052163;28;21158;-51
2021/05/15 12:30:02;;;;;;;2.67;1.60;;;16.40;84.30;;;;;;5051323;28;21271;-52
2021/05/15 12:32:29;;;;;;;3.43;1.87;;;16.40;82.60;;;;;;5052278;28;20630;-52
2021/05/15 12:34:59;;;;;;;2.03;1.67;;;16.40;81.50;;;;;;5049477;28;20784;-51
2021/05/15 12:37:33;;;;;;;1.97;1.77;;;16.30;83.90;;;;;;5046796;28;20647;-50
2021/05/15 12:40:03;;;;;;;2.30;1.50;;;16.10;85.70;;;;;;5045737;28;20688;-51
2021/05/15 12:42:30;;;;;;;1.37;1.23;;;16.10;86.50;;;;;;5043154;28;20715;-51
2021/05/15 12:45:06;;;;;;;1.37;1.27;;;16.10;87.90;;;;;;5051487;28;20715;-52
2021/05/15 12:47:34;;;;;;;5.73;1.73;;;16.00;87.00;;;;;;5051049;28;20913;-52
2021/05/15 12:50:01;;;;;;;3.20;2.00;;;15.90;87.10;;;;;;5051252;28;20691;-52